Otis, Kansas
Current Conditions -  °F | °C
As of 4:55 PM on Wednesday 26 Nov 2014 (Local Time) from KGBD Reporting Station
Overcast Overcast  
Wind Chill: 31°   Ceiling: 9000
Heat Index: 39°   Visibility: 10mi
Dew Point: 19°   Wind: 15mph
Humidity: 45%   Direction: 340°NNW
Pressure: 30.33"   Gusts: 20mph
Location:  38.53°N, 99.05°W
Report Text: KGBD 262255Z AUTO 34013G17KT 10SM OVC090 04/M07 A3033 RMK AO1
Loading
Personal Weather Stations






























Interactive Weather Map New forecast layout! Learn more

10-Day Weather Forecast

Advertisements
Track Severe Weather on mobile